createdAt,value
2019-02-22T00:02:06.460Z,26.20
2019-02-22T00:04:57.125Z,32.65
2019-02-22T00:07:47.325Z,26.50
2019-02-22T00:12:47.050Z,36.68
2019-02-22T00:15:17.014Z,26.40
2019-02-22T00:20:47.730Z,32.38
2019-02-22T00:23:09.962Z,25.75
2019-02-22T00:25:59.889Z,33.00
2019-02-22T00:28:49.693Z,33.80
2019-02-22T00:31:39.452Z,26.77
2019-02-22T00:34:09.821Z,26.77
2019-02-22T00:36:40.087Z,27.65
2019-02-22T00:39:10.334Z,35.00
2019-02-22T00:42:00.022Z,27.90
2019-02-22T00:44:50.672Z,30.15
2019-02-22T00:53:35.324Z,40.15
2019-02-22T00:56:25.660Z,22.93
2019-02-22T00:59:16.006Z,30.60
2019-02-22T01:02:05.848Z,29.90
2019-02-22T01:04:56.014Z,24.35
2019-02-22T01:07:27.077Z,32.75
2019-02-22T01:10:17.074Z,34.25
2019-02-22T01:12:59.302Z,36.70
2019-02-22T01:15:29.415Z,30.40
2019-02-22T01:17:59.786Z,28.17
2019-02-22T01:20:54.042Z,35.25
2019-02-22T01:23:17.019Z,33.78
2019-02-22T01:25:47.139Z,36.23
2019-02-22T01:31:11.711Z,34.30
2019-02-22T01:33:42.320Z,40.70
2019-02-22T01:36:12.599Z,31.73
2019-02-22T01:38:42.699Z,38.10
2019-02-22T01:41:32.958Z,34.75
2019-02-22T01:44:23.537Z,29.67
2019-02-22T01:46:57.159Z,33.25
2019-02-22T01:49:27.134Z,28.32
2019-02-22T01:51:57.360Z,41.05
2019-02-22T01:54:27.453Z,34.58
2019-02-22T01:56:57.587Z,34.40
2019-02-22T01:59:28.149Z,39.45
2019-02-22T02:02:18.123Z,32.88
2019-02-22T02:17:45.257Z,34.63
2019-02-22T02:20:35.852Z,30.40
2019-02-22T02:29:32.455Z,37.23
2019-02-22T02:48:48.962Z,35.48
2019-02-22T02:57:02.845Z,41.28
2019-02-22T03:10:33.134Z,38.17
2019-02-22T03:31:38.720Z,41.08
2019-02-22T03:34:28.247Z,40.83
2019-02-22T03:36:59.100Z,36.38
2019-02-22T03:39:29.587Z,35.60
2019-02-22T03:42:03.679Z,42.93
2019-02-22T03:44:40.987Z,33.53
2019-02-22T03:47:08.956Z,36.10
2019-02-22T03:52:51.860Z,42.90
2019-02-22T03:55:24.499Z,39.70
2019-02-22T04:00:46.901Z,47.33
2019-02-22T04:06:06.840Z,51.35
2019-02-22T04:08:42.272Z,48.55
2019-02-22T04:14:34.481Z,54.30
2019-02-22T04:17:24.701Z,55.65
2019-02-22T04:19:56.049Z,52.62
2019-02-22T04:22:40.271Z,46.68
2019-02-22T04:31:31.804Z,56.75
2019-02-22T04:34:20.212Z,63.95
2019-02-22T04:37:11.487Z,59.55
2019-02-22T04:43:13.048Z,62.48
2019-02-22T04:45:43.924Z,66.30
2019-02-22T04:48:14.484Z,72.95
2019-02-22T04:54:07.557Z,77.30
2019-02-22T04:56:37.987Z,60.20
2019-02-22T04:59:08.922Z,63.58
2019-02-22T05:01:50.592Z,58.30
2019-02-22T05:04:21.715Z,75.80
2019-02-22T05:07:14.814Z,71.17
2019-02-22T05:13:06.131Z,71.55
2019-02-22T05:21:34.787Z,67.33
2019-02-22T05:24:24.227Z,69.45
2019-02-22T05:27:13.661Z,69.22
2019-02-22T05:29:43.636Z,76.85
2019-02-22T05:32:33.622Z,80.57
2019-02-22T05:35:22.966Z,74.37
2019-02-22T05:37:52.953Z,73.20
2019-02-22T05:40:42.454Z,81.35
2019-02-22T05:43:31.826Z,72.37
2019-02-22T05:46:21.235Z,82.25
2019-02-22T05:48:51.284Z,83.95
2019-02-22T05:51:21.615Z,76.77
2019-02-22T05:53:51.571Z,75.97
2019-02-22T05:56:21.442Z,79.58
2019-02-22T05:59:10.959Z,79.92
2019-02-22T06:01:40.871Z,78.05
2019-02-22T06:04:10.717Z,66.77
2019-02-22T06:07:03.152Z,82.35
2019-02-22T06:13:49.326Z,88.45
2019-02-22T06:16:44.265Z,95.70
2019-02-22T06:20:12.669Z,91.53
2019-02-22T06:22:57.611Z,95.05
2019-02-22T06:29:00.101Z,83.20
2019-02-22T06:31:30.075Z,90.77
2019-02-22T06:34:00.419Z,86.45
2019-02-22T06:36:30.335Z,91.47
2019-02-22T06:39:19.978Z,86.80
2019-02-22T06:42:09.462Z,88.60
2019-02-22T06:44:40.041Z,88.27
2019-02-22T06:47:10.341Z,100.75
2019-02-22T06:49:41.313Z,89.87
2019-02-22T06:52:30.736Z,101.35
2019-02-22T06:55:00.695Z,92.92
2019-02-22T06:57:50.150Z,102.78
2019-02-22T07:00:39.643Z,116.17
2019-02-22T07:03:29.018Z,116.33
2019-02-22T07:06:18.351Z,114.35
2019-02-22T07:09:07.669Z,107.12
2019-02-22T07:14:30.177Z,119.17
2019-02-22T07:17:38.915Z,93.58
2019-02-22T07:20:28.580Z,99.47
2019-02-22T07:23:09.198Z,100.33
2019-02-22T07:25:59.224Z,96.80
2019-02-22T07:28:48.834Z,97.50
2019-02-22T07:31:38.227Z,97.62
2019-02-22T07:34:27.708Z,115.92
2019-02-22T07:37:17.263Z,98.30
2019-02-22T07:40:06.703Z,104.80
2019-02-22T07:43:07.446Z,97.08
2019-02-22T07:46:05.612Z,103.87
2019-02-22T07:48:55.070Z,103.42
2019-02-22T07:51:25.119Z,103.02
2019-02-22T07:54:14.655Z,100.90
2019-02-22T07:57:04.023Z,92.97
2019-02-22T07:59:53.464Z,92.90
2019-02-22T08:02:23.476Z,100.53
2019-02-22T08:04:53.576Z,93.80
2019-02-22T08:07:23.624Z,95.60
2019-02-22T08:09:53.707Z,91.72
2019-02-22T08:12:43.186Z,95.72
2019-02-22T08:15:13.228Z,96.25
2019-02-22T08:17:43.606Z,91.22
2019-02-22T08:20:15.790Z,90.50
2019-02-22T08:22:45.738Z,95.65
2019-02-22T08:25:35.377Z,94.45
2019-02-22T08:28:24.899Z,81.92
2019-02-22T08:30:55.057Z,89.92
2019-02-22T08:33:25.154Z,79.50
2019-02-22T08:36:14.640Z,82.47
2019-02-22T08:39:57.331Z,80.53
2019-02-22T08:42:54.477Z,76.47
2019-02-22T08:45:43.792Z,84.50
2019-02-22T08:48:34.236Z,74.20
2019-02-22T08:51:23.636Z,80.55
2019-02-22T08:54:13.201Z,71.28
2019-02-22T08:57:02.995Z,70.42
2019-02-22T08:59:33.354Z,66.22
2019-02-22T09:02:03.126Z,72.87
2019-02-22T09:04:33.225Z,66.35
2019-02-22T09:07:03.536Z,59.80
2019-02-22T09:09:33.560Z,74.05
2019-02-22T09:12:03.631Z,66.72
2019-02-22T09:14:53.421Z,70.83
2019-02-22T09:17:23.376Z,85.32
2019-02-22T09:22:47.361Z,65.35
2019-02-22T09:25:18.217Z,65.62
2019-02-22T09:27:48.086Z,67.58
2019-02-22T09:30:18.126Z,65.60
2019-02-22T09:33:07.723Z,72.37
2019-02-22T09:35:37.751Z,63.15
2019-02-22T09:38:27.517Z,72.00
2019-02-22T09:40:57.807Z,75.37
2019-02-22T09:43:54.634Z,67.53
2019-02-22T09:46:56.805Z,56.75
2019-02-22T09:49:47.076Z,66.17
2019-02-22T09:52:36.474Z,55.73
2019-02-22T09:55:11.232Z,64.85
2019-02-22T09:57:41.440Z,56.20
2019-02-22T10:00:11.875Z,60.52
2019-02-22T10:02:44.560Z,58.05
2019-02-22T10:05:13.857Z,56.45
2019-02-22T10:07:43.888Z,53.55
2019-02-22T10:10:33.401Z,51.15
2019-02-22T10:13:16.675Z,47.75
2019-02-22T10:15:46.742Z,56.33
2019-02-22T10:19:25.136Z,50.10
2019-02-22T10:22:16.213Z,52.03
2019-02-22T10:29:52.673Z,56.28
2019-02-22T10:32:50.131Z,57.95
2019-02-22T10:36:31.014Z,62.30
2019-02-22T10:39:38.712Z,47.65
2019-02-22T10:46:05.188Z,43.52
2019-02-22T10:52:35.842Z,45.00
2019-02-22T10:55:06.110Z,24.87
2019-02-22T10:57:46.571Z,32.98
2019-02-22T11:00:36.355Z,32.75
2019-02-22T11:03:25.845Z,39.18
2019-02-22T11:06:15.191Z,35.92
2019-02-22T11:12:41.213Z,26.50
2019-02-22T11:15:30.640Z,27.13
2019-02-22T11:18:19.979Z,29.85
2019-02-22T11:21:09.485Z,39.25
2019-02-22T11:23:39.905Z,28.57
2019-02-22T11:26:11.138Z,26.87
2019-02-22T11:31:50.393Z,34.70
2019-02-22T11:34:20.758Z,35.58
2019-02-22T11:36:50.733Z,33.10
2019-02-22T11:39:42.186Z,28.95
2019-02-22T11:42:13.852Z,34.00
2019-02-22T11:56:17.183Z,14.43
2019-02-22T11:59:07.999Z,17.25
2019-02-22T12:01:53.590Z,18.82
2019-02-22T12:11:36.502Z,17.07
2019-02-22T12:14:10.027Z,15.55
2019-02-22T12:16:40.551Z,15.28
2019-02-22T12:28:29.999Z,15.95
2019-02-22T12:31:42.592Z,17.65
2019-02-22T12:46:20.086Z,23.92
2019-02-22T12:52:04.393Z,18.55
2019-02-22T12:54:34.479Z,22.55
2019-02-22T12:57:25.809Z,20.70
2019-02-22T12:59:55.763Z,17.12
2019-02-22T13:02:25.890Z,21.45
2019-02-22T13:05:17.787Z,22.45
2019-02-22T13:08:10.779Z,18.05
2019-02-22T13:11:13.152Z,19.85
2019-02-22T13:14:02.955Z,25.40
2019-02-22T13:16:52.763Z,19.48
2019-02-22T13:19:28.872Z,25.75
2019-02-22T13:22:03.452Z,23.07
2019-02-22T13:27:30.980Z,12.43
2019-02-22T13:30:02.335Z,14.87
2019-02-22T13:32:42.720Z,11.30
2019-02-22T13:35:07.184Z,13.62
2019-02-22T13:37:37.899Z,14.90
2019-02-22T13:40:11.049Z,13.50
2019-02-22T13:42:44.641Z,13.62
2019-02-22T13:45:33.406Z,10.10
2019-02-22T13:48:05.921Z,6.10
2019-02-22T13:50:40.543Z,12.53
2019-02-22T13:53:10.923Z,13.32
2019-02-22T13:55:42.851Z,11.73
2019-02-22T13:58:13.263Z,19.35
2019-02-22T14:00:43.407Z,17.50
2019-02-22T14:03:14.628Z,18.30
2019-02-22T14:05:46.166Z,15.55
2019-02-22T14:08:22.639Z,13.60
2019-02-22T14:10:59.654Z,15.83
2019-02-22T14:14:12.425Z,15.23
2019-02-22T14:16:22.350Z,16.40
2019-02-22T14:18:55.737Z,14.87
2019-02-22T14:21:26.325Z,19.65
2019-02-22T14:24:16.101Z,15.13
2019-02-22T14:27:08.548Z,14.53
2019-02-22T14:36:57.207Z,12.63
2019-02-22T14:40:00.099Z,14.38
2019-02-22T14:42:40.110Z,12.75
2019-02-22T14:45:30.062Z,13.18
2019-02-22T14:48:19.795Z,16.77
2019-02-22T14:50:51.236Z,21.07
2019-02-22T14:53:22.142Z,13.20
2019-02-22T14:59:46.642Z,16.70
2019-02-22T15:02:16.887Z,16.10
2019-02-22T15:08:13.796Z,11.05
2019-02-22T15:20:13.011Z,11.73
2019-02-22T15:23:03.222Z,15.93
2019-02-22T15:28:26.311Z,14.00
2019-02-22T15:34:06.875Z,12.28
2019-02-22T15:36:37.463Z,9.65
2019-02-22T15:39:07.525Z,14.35
2019-02-22T15:47:48.791Z,10.95
2019-02-22T15:50:38.562Z,11.88
2019-02-22T15:53:30.231Z,11.80
2019-02-22T15:56:02.196Z,13.45
2019-02-22T15:58:52.308Z,12.10
2019-02-22T16:01:23.570Z,13.58
2019-02-22T16:04:16.651Z,12.00
2019-02-22T16:07:06.906Z,15.00
2019-02-22T16:49:54.786Z,13.45
2019-02-22T16:56:02.092Z,10.20
2019-02-22T16:59:15.552Z,11.48
2019-02-22T17:02:25.891Z,15.00
2019-02-22T17:05:13.821Z,9.20
2019-02-22T17:07:52.703Z,12.37
2019-02-22T17:11:04.161Z,10.32
2019-02-22T17:14:03.035Z,9.98
2019-02-22T17:16:24.736Z,14.38
2019-02-22T17:28:33.197Z,10.98
2019-02-22T17:33:56.499Z,26.70
2019-02-22T17:36:48.612Z,15.45
2019-02-22T17:45:48.756Z,10.53
2019-02-22T18:05:57.661Z,9.85
2019-02-22T18:08:55.314Z,10.03
2019-02-22T18:11:44.961Z,13.38
2019-02-22T18:14:35.019Z,13.15
2019-02-22T18:17:25.712Z,10.80
2019-02-22T18:19:56.059Z,16.30
2019-02-22T18:22:36.748Z,17.20
2019-02-22T18:25:07.265Z,12.90
2019-02-22T18:27:58.621Z,15.35
2019-02-22T18:30:28.983Z,12.23
2019-02-22T18:33:18.401Z,13.18
2019-02-22T18:35:48.744Z,20.02
2019-02-22T18:38:18.962Z,15.88
2019-02-22T18:40:48.968Z,13.98
2019-02-22T18:43:19.351Z,15.68
2019-02-22T18:45:49.608Z,12.95
2019-02-22T18:48:39.273Z,17.52
2019-02-22T18:54:30.380Z,15.40
2019-02-22T18:57:00.467Z,17.77
2019-02-22T18:59:50.305Z,17.70
2019-02-22T19:02:39.842Z,14.60
2019-02-22T19:08:04.418Z,17.32
2019-02-22T19:10:54.792Z,17.02
2019-02-22T19:13:28.044Z,13.45
2019-02-22T19:19:26.427Z,12.23
2019-02-22T19:21:56.717Z,13.45
2019-02-22T19:24:46.272Z,16.65
2019-02-22T19:27:28.707Z,16.97
2019-02-22T19:29:59.263Z,16.25
2019-02-22T19:32:30.835Z,14.98
2019-02-22T19:35:21.196Z,17.23
2019-02-22T19:38:11.433Z,19.27
2019-02-22T19:41:01.140Z,18.45
2019-02-22T19:43:31.873Z,12.85
2019-02-22T19:46:02.661Z,13.32
2019-02-22T19:48:33.190Z,19.60
2019-02-22T19:51:47.232Z,12.73
2019-02-22T19:54:18.793Z,11.45
2019-02-22T19:56:49.169Z,16.45
2019-02-22T19:59:22.418Z,13.43
2019-02-22T20:02:16.141Z,13.80
2019-02-22T20:04:48.744Z,21.90
2019-02-22T20:07:21.377Z,17.77
2019-02-22T20:13:27.666Z,16.70
2019-02-22T20:16:00.844Z,21.30
2019-02-22T20:18:44.565Z,20.05
2019-02-22T20:21:14.876Z,12.90
2019-02-22T20:26:30.496Z,14.07
2019-02-22T20:29:00.676Z,17.10
2019-02-22T20:34:31.294Z,14.13
2019-02-22T20:37:02.026Z,20.68
2019-02-22T20:39:33.820Z,16.65
2019-02-22T20:42:03.951Z,17.77
2019-02-22T20:44:36.895Z,15.45
2019-02-22T20:47:48.429Z,21.00
2019-02-22T20:50:25.958Z,17.30
2019-02-22T20:56:03.858Z,11.78
2019-02-22T20:58:33.927Z,15.08
2019-02-22T21:01:14.227Z,14.05
2019-02-22T21:03:55.028Z,16.87
2019-02-22T21:06:28.216Z,15.95
2019-02-22T21:08:58.159Z,17.57
2019-02-22T21:11:30.848Z,16.82
2019-02-22T21:17:22.582Z,18.73
2019-02-22T21:19:52.888Z,22.10
2019-02-22T21:22:23.027Z,18.73
2019-02-22T21:24:53.195Z,14.95
2019-02-22T21:27:23.417Z,16.97
2019-02-22T21:29:54.224Z,19.37
2019-02-22T21:32:24.448Z,18.20
2019-02-22T21:35:14.203Z,20.88
2019-02-22T21:37:44.461Z,19.82
2019-02-22T21:40:14.406Z,15.98
2019-02-22T21:42:44.916Z,22.45
2019-02-22T21:45:34.781Z,15.63
2019-02-22T21:48:27.735Z,17.27
2019-02-22T21:51:15.459Z,20.45
2019-02-22T21:53:46.149Z,18.62
2019-02-22T21:56:16.402Z,17.48
2019-02-22T21:58:48.870Z,18.07
2019-02-22T22:01:39.015Z,17.17
2019-02-22T22:04:08.984Z,17.55
2019-02-22T22:09:54.634Z,19.73
2019-02-22T22:13:05.302Z,18.15
2019-02-22T22:15:54.975Z,18.95
2019-02-22T22:18:44.636Z,19.27
2019-02-22T22:21:34.052Z,21.90
2019-02-22T22:24:04.172Z,18.92
2019-02-22T22:43:45.411Z,18.87
2019-02-22T22:46:58.039Z,25.12
2019-02-22T22:49:28.785Z,20.92
2019-02-22T22:57:41.341Z,21.33
2019-02-22T23:03:49.972Z,27.15
2019-02-22T23:08:54.220Z,26.77
2019-02-22T23:17:01.023Z,24.47
2019-02-22T23:19:31.250Z,24.05
2019-02-22T23:22:01.374Z,21.17
2019-02-22T23:24:51.164Z,23.20
2019-02-22T23:27:21.238Z,24.72
2019-02-22T23:29:51.253Z,21.27
2019-02-22T23:32:21.144Z,20.92
2019-02-22T23:35:10.508Z,19.45
2019-02-22T23:38:00.105Z,20.02
2019-02-22T23:40:49.796Z,17.30
2019-02-22T23:43:42.169Z,19.37
2019-02-22T23:46:12.193Z,21.17
2019-02-22T23:48:42.664Z,25.70
2019-02-22T23:51:12.601Z,21.62
2019-02-22T23:53:42.640Z,25.45
2019-02-22T23:56:12.537Z,23.83
2019-02-22T23:58:42.523Z,16.57
